createdAt,value
2017-12-16T00:00:01.877Z,5.52
2017-12-16T00:02:29.424Z,5.45
2017-12-16T00:04:56.917Z,5.35
2017-12-16T00:07:24.440Z,5.37
2017-12-16T00:09:51.994Z,5.49
2017-12-16T00:12:19.516Z,5.70
2017-12-16T00:14:47.013Z,5.64
2017-12-16T00:17:14.507Z,5.44
2017-12-16T00:19:42.027Z,5.60
2017-12-16T00:22:09.490Z,5.44
2017-12-16T00:24:36.969Z,5.47
2017-12-16T00:27:04.452Z,5.31
2017-12-16T00:29:31.989Z,5.43
2017-12-16T00:31:59.483Z,5.45
2017-12-16T00:34:27.615Z,5.47
2017-12-16T00:36:55.118Z,5.39
2017-12-16T00:39:22.563Z,5.37
2017-12-16T00:41:50.004Z,5.33
2017-12-16T00:44:17.551Z,5.34
2017-12-16T00:46:44.996Z,5.28
2017-12-16T00:49:12.494Z,5.21
2017-12-16T00:51:39.958Z,5.17
2017-12-16T00:54:07.415Z,5.17
2017-12-16T00:56:34.876Z,5.14
2017-12-16T00:59:02.333Z,5.22
2017-12-16T01:01:29.804Z,5.19
2017-12-16T01:03:57.364Z,5.23
2017-12-16T01:06:24.987Z,5.21
2017-12-16T01:08:52.488Z,5.32
2017-12-16T01:11:19.937Z,5.34
2017-12-16T01:13:47.380Z,5.34
2017-12-16T01:16:15.067Z,5.39
2017-12-16T01:18:42.575Z,5.32
2017-12-16T01:21:10.063Z,5.17
2017-12-16T01:23:37.538Z,5.06
2017-12-16T01:26:05.001Z,5.12
2017-12-16T01:28:32.738Z,5.02
2017-12-16T01:31:00.188Z,5.03
2017-12-16T01:33:39.603Z,4.99
2017-12-16T01:36:18.936Z,4.98
2017-12-16T01:38:46.472Z,5.04
2017-12-16T01:41:13.926Z,5.10
2017-12-16T01:43:41.449Z,5.05
2017-12-16T01:46:08.913Z,5.08
2017-12-16T01:48:36.355Z,4.98
2017-12-16T01:51:03.820Z,4.96
2017-12-16T01:53:31.399Z,4.90
2017-12-16T01:55:58.841Z,4.90
2017-12-16T01:58:26.302Z,4.90
2017-12-16T02:00:53.807Z,4.91
2017-12-16T02:03:21.243Z,4.77
2017-12-16T02:05:48.713Z,4.72
2017-12-16T02:08:20.384Z,4.72
2017-12-16T02:10:48.071Z,4.74
2017-12-16T02:13:15.523Z,4.77
2017-12-16T02:15:43.161Z,4.66
2017-12-16T02:18:10.639Z,4.57
2017-12-16T02:20:38.086Z,4.56
2017-12-16T02:23:05.612Z,4.49
2017-12-16T02:25:33.077Z,4.48
2017-12-16T02:28:00.537Z,4.59
2017-12-16T02:30:28.088Z,4.59
2017-12-16T02:32:55.559Z,4.80
2017-12-16T02:35:23.059Z,4.74
2017-12-16T02:37:50.572Z,4.86
2017-12-16T02:40:18.026Z,4.85
2017-12-16T02:42:45.525Z,4.90
2017-12-16T02:45:13.032Z,4.95
2017-12-16T02:47:40.494Z,4.95
2017-12-16T02:50:07.964Z,4.81
2017-12-16T02:52:35.442Z,4.94
2017-12-16T02:55:02.893Z,4.84
2017-12-16T02:57:30.351Z,4.80
2017-12-16T02:59:57.835Z,4.79
2017-12-16T03:02:25.284Z,4.81
2017-12-16T03:04:52.753Z,4.79
2017-12-16T03:07:20.213Z,4.76
2017-12-16T03:09:47.708Z,4.84
2017-12-16T03:12:15.159Z,4.74
2017-12-16T03:14:42.596Z,4.89
2017-12-16T03:17:10.078Z,4.84
2017-12-16T03:19:38.112Z,4.83
2017-12-16T03:22:05.580Z,4.78
2017-12-16T03:24:33.089Z,4.82
2017-12-16T03:27:00.536Z,4.80
2017-12-16T03:29:27.977Z,4.80
2017-12-16T03:31:55.466Z,4.96
2017-12-16T03:34:22.919Z,4.86
2017-12-16T03:36:50.424Z,4.86
2017-12-16T03:39:17.907Z,4.94
2017-12-16T03:41:45.386Z,4.85
2017-12-16T03:44:18.439Z,4.87
2017-12-16T03:46:45.951Z,4.85
2017-12-16T03:49:14.095Z,4.83
2017-12-16T03:51:41.555Z,4.89
2017-12-16T03:54:09.032Z,4.90
2017-12-16T03:56:37.599Z,4.85
2017-12-16T03:59:05.095Z,4.87
2017-12-16T04:01:32.547Z,4.86
2017-12-16T04:04:00.002Z,4.82
2017-12-16T04:06:28.312Z,4.85
2017-12-16T04:08:55.807Z,4.90
2017-12-16T04:11:23.261Z,4.95
2017-12-16T04:13:50.747Z,4.86
2017-12-16T04:16:18.215Z,4.88
2017-12-16T04:18:45.678Z,4.94
2017-12-16T04:21:13.360Z,4.90
2017-12-16T04:23:40.815Z,4.85
2017-12-16T04:26:08.266Z,4.81
2017-12-16T04:28:35.729Z,4.94
2017-12-16T04:31:03.257Z,4.79
2017-12-16T04:33:30.788Z,4.77
2017-12-16T04:35:58.244Z,4.79
2017-12-16T04:38:25.709Z,4.76
2017-12-16T04:40:53.160Z,4.69
2017-12-16T04:43:20.645Z,4.72
2017-12-16T04:45:48.098Z,4.74
2017-12-16T04:48:15.558Z,4.54
2017-12-16T04:50:43.019Z,4.60
2017-12-16T04:53:10.500Z,4.55
2017-12-16T04:55:37.954Z,4.58
2017-12-16T04:58:05.443Z,4.51
2017-12-16T05:00:32.888Z,4.50
2017-12-16T05:03:00.343Z,4.54
2017-12-16T05:05:27.917Z,4.47
2017-12-16T05:07:55.359Z,4.58
2017-12-16T05:10:22.841Z,4.54
2017-12-16T05:12:50.304Z,4.44
2017-12-16T05:15:17.755Z,4.50
2017-12-16T05:17:45.421Z,4.50
2017-12-16T05:20:12.880Z,4.39
2017-12-16T05:22:40.352Z,4.47
2017-12-16T05:25:07.822Z,4.43
2017-12-16T05:27:35.272Z,4.43
2017-12-16T05:30:02.752Z,4.47
2017-12-16T05:32:30.298Z,4.36
2017-12-16T05:34:57.731Z,4.34
2017-12-16T05:37:25.184Z,4.38
2017-12-16T05:39:52.669Z,4.34
2017-12-16T05:42:21.124Z,4.33
2017-12-16T05:44:48.562Z,4.40
2017-12-16T05:47:16.031Z,4.30
2017-12-16T05:49:43.512Z,4.28
2017-12-16T05:52:10.967Z,4.17
2017-12-16T05:54:38.425Z,4.23
2017-12-16T05:57:05.924Z,4.24
2017-12-16T05:59:33.400Z,4.20
2017-12-16T06:02:01.865Z,4.33
2017-12-16T06:04:29.456Z,4.30
2017-12-16T06:06:56.919Z,4.37
2017-12-16T06:09:24.373Z,4.43
2017-12-16T06:11:51.831Z,4.31
2017-12-16T06:14:20.047Z,4.18
2017-12-16T06:16:47.525Z,4.08
2017-12-16T06:19:15.001Z,4.08
2017-12-16T06:21:42.484Z,4.10
2017-12-16T06:24:09.941Z,4.18
2017-12-16T06:26:37.383Z,4.26
2017-12-16T06:29:04.892Z,4.16
2017-12-16T06:31:36.640Z,4.15
2017-12-16T06:34:04.146Z,4.27
2017-12-16T06:36:31.837Z,4.33
2017-12-16T06:39:00.402Z,4.18
2017-12-16T06:41:31.918Z,4.07
2017-12-16T06:43:59.827Z,4.25
2017-12-16T06:46:27.698Z,4.22
2017-12-16T06:48:55.296Z,4.09
2017-12-16T06:51:22.873Z,4.12
2017-12-16T06:53:50.359Z,4.26
2017-12-16T06:56:17.847Z,4.26
2017-12-16T06:58:50.314Z,4.31
2017-12-16T07:01:17.784Z,4.26
2017-12-16T07:03:51.774Z,4.29
2017-12-16T07:06:19.391Z,4.18
2017-12-16T07:08:46.840Z,4.27
2017-12-16T07:11:17.547Z,4.22
2017-12-16T07:13:45.092Z,4.23
2017-12-16T07:16:13.939Z,4.37
2017-12-16T07:18:41.609Z,4.37
2017-12-16T07:21:09.052Z,4.37
2017-12-16T07:23:36.549Z,4.41
2017-12-16T07:26:04.360Z,4.43
2017-12-16T07:28:34.467Z,4.40
2017-12-16T07:31:01.957Z,4.41
2017-12-16T07:33:29.459Z,4.42
2017-12-16T07:35:56.931Z,4.48
2017-12-16T07:38:24.416Z,4.53
2017-12-16T07:40:51.907Z,4.57
2017-12-16T07:43:19.453Z,4.67
2017-12-16T07:45:46.968Z,4.63
2017-12-16T07:48:14.451Z,4.69
2017-12-16T07:50:42.000Z,4.65
2017-12-16T07:53:09.492Z,4.74
2017-12-16T07:55:36.994Z,4.71
2017-12-16T07:58:04.612Z,4.77
2017-12-16T08:00:32.092Z,4.74
2017-12-16T08:02:59.578Z,4.83
2017-12-16T08:05:27.034Z,4.78
2017-12-16T08:07:54.520Z,4.84
2017-12-16T08:10:22.125Z,4.83
2017-12-16T08:12:49.616Z,4.85
2017-12-16T08:15:17.068Z,4.85
2017-12-16T08:17:44.973Z,4.95
2017-12-16T08:20:12.460Z,5.07
2017-12-16T08:22:40.030Z,5.23
2017-12-16T08:25:07.493Z,5.26
2017-12-16T08:27:35.003Z,5.28
2017-12-16T08:30:03.328Z,5.32
2017-12-16T08:45:26.955Z,5.44
2017-12-16T08:47:54.450Z,5.41
2017-12-16T08:50:21.911Z,5.46
2017-12-16T08:52:49.407Z,5.54
2017-12-16T08:55:16.948Z,5.59
2017-12-16T08:57:44.392Z,5.60
2017-12-16T09:00:11.904Z,5.72
2017-12-16T09:02:39.378Z,5.79
2017-12-16T09:05:06.855Z,5.83
2017-12-16T09:07:34.354Z,5.73
2017-12-16T09:10:02.180Z,5.68
2017-12-16T09:12:29.689Z,5.68
2017-12-16T09:14:57.241Z,5.71
2017-12-16T09:17:24.808Z,5.72
2017-12-16T09:19:52.267Z,5.76
2017-12-16T09:22:19.840Z,5.85
2017-12-16T09:24:47.332Z,5.85
2017-12-16T09:27:14.953Z,5.79
2017-12-16T09:29:42.425Z,5.81
2017-12-16T09:32:11.581Z,5.98
2017-12-16T09:34:39.044Z,5.90
2017-12-16T09:37:06.577Z,5.94
2017-12-16T09:39:34.073Z,6.11
2017-12-16T09:42:01.622Z,6.05
2017-12-16T09:44:30.318Z,6.10
2017-12-16T09:47:02.378Z,6.10
2017-12-16T09:49:30.016Z,6.11
2017-12-16T09:51:57.770Z,6.24
2017-12-16T09:54:25.692Z,6.33
2017-12-16T09:56:53.208Z,6.49
2017-12-16T09:59:20.728Z,6.40
2017-12-16T10:01:48.401Z,6.54
2017-12-16T10:04:15.878Z,6.70
2017-12-16T10:06:43.369Z,6.67
2017-12-16T10:09:10.853Z,6.60
2017-12-16T10:11:38.441Z,6.71
2017-12-16T10:14:05.938Z,6.80
2017-12-16T10:16:33.477Z,6.76
2017-12-16T10:19:00.933Z,6.67
2017-12-16T10:21:28.419Z,6.32
2017-12-16T10:23:55.886Z,6.47
2017-12-16T10:26:23.436Z,6.33
2017-12-16T10:28:50.920Z,6.50
2017-12-16T10:31:18.660Z,6.52
2017-12-16T10:33:46.219Z,6.59
2017-12-16T10:36:13.751Z,6.68
2017-12-16T10:38:41.321Z,6.66
2017-12-16T10:41:08.829Z,6.57
2017-12-16T10:43:36.336Z,6.59
2017-12-16T10:46:03.909Z,6.63
2017-12-16T10:48:31.380Z,6.48
2017-12-16T10:50:58.940Z,6.56
2017-12-16T10:53:26.462Z,6.45
2017-12-16T10:55:53.936Z,6.16
2017-12-16T10:58:23.661Z,6.36
2017-12-16T11:00:55.930Z,6.23
2017-12-16T11:03:23.409Z,6.15
2017-12-16T11:05:52.199Z,6.09
2017-12-16T11:08:19.687Z,6.37
2017-12-16T11:10:47.627Z,6.16
2017-12-16T11:13:19.885Z,6.13
2017-12-16T11:15:47.343Z,5.98
2017-12-16T11:18:15.028Z,6.14
2017-12-16T11:20:42.797Z,6.38
2017-12-16T11:36:05.420Z,6.24
2017-12-16T11:41:05.738Z,6.21
2017-12-16T11:43:36.596Z,6.15
2017-12-16T11:46:04.031Z,6.20
2017-12-16T11:48:31.516Z,6.25
2017-12-16T11:50:59.154Z,6.37
2017-12-16T11:53:26.644Z,6.20
2017-12-16T11:55:54.106Z,6.28
2017-12-16T11:58:21.605Z,6.11
2017-12-16T12:00:49.088Z,6.27
2017-12-16T12:03:16.740Z,6.20
2017-12-16T12:05:50.614Z,6.22
2017-12-16T12:08:23.069Z,6.24
2017-12-16T12:10:50.571Z,6.13
2017-12-16T12:13:18.504Z,6.20
2017-12-16T12:15:52.888Z,6.21
2017-12-16T12:18:23.057Z,6.19
2017-12-16T12:20:50.597Z,6.26
2017-12-16T12:23:21.748Z,6.17
2017-12-16T12:25:49.261Z,6.17
2017-12-16T12:28:21.905Z,6.26
2017-12-16T12:30:49.380Z,6.21
2017-12-16T12:33:17.006Z,6.22
2017-12-16T12:35:44.471Z,6.33
2017-12-16T12:38:12.167Z,6.37
2017-12-16T12:40:43.937Z,6.43
2017-12-16T12:43:11.417Z,6.41
2017-12-16T12:45:46.700Z,6.50
2017-12-16T12:48:31.267Z,6.33
2017-12-16T12:51:05.272Z,6.15
2017-12-16T12:53:32.796Z,6.21
2017-12-16T12:56:00.263Z,6.10
2017-12-16T12:58:28.051Z,5.99
2017-12-16T13:00:55.592Z,5.98
2017-12-16T13:03:23.126Z,6.09
2017-12-16T13:05:50.576Z,6.14
2017-12-16T13:08:18.084Z,6.09
2017-12-16T13:10:45.567Z,6.16
2017-12-16T13:13:13.069Z,6.10
2017-12-16T13:15:41.227Z,6.09
2017-12-16T13:18:08.681Z,6.17
2017-12-16T13:20:36.148Z,5.90
2017-12-16T13:23:03.613Z,6.07
2017-12-16T13:25:31.080Z,6.11
2017-12-16T13:27:58.565Z,6.15
2017-12-16T13:30:26.298Z,6.11
2017-12-16T13:32:53.830Z,6.12
2017-12-16T13:35:24.483Z,6.06
2017-12-16T13:37:51.987Z,5.90
2017-12-16T13:40:19.444Z,5.85
2017-12-16T13:42:46.909Z,6.04
2017-12-16T13:45:14.516Z,6.13
2017-12-16T13:47:42.843Z,6.07
2017-12-16T13:50:10.287Z,6.16
2017-12-16T13:52:37.886Z,6.09
2017-12-16T13:55:05.401Z,6.09
2017-12-16T13:57:32.872Z,6.11
2017-12-16T14:00:00.710Z,6.18
2017-12-16T14:02:28.256Z,6.17
2017-12-16T14:04:55.712Z,6.43
2017-12-16T14:07:24.924Z,6.49
2017-12-16T14:09:56.314Z,6.54
2017-12-16T14:12:23.925Z,6.48
2017-12-16T14:14:51.455Z,6.45
2017-12-16T14:17:18.947Z,6.18
2017-12-16T14:19:46.410Z,5.86
2017-12-16T14:22:13.909Z,5.88
2017-12-16T14:24:41.652Z,5.68
2017-12-16T14:27:09.121Z,5.67
2017-12-16T14:29:36.633Z,5.47
2017-12-16T14:32:04.190Z,5.34
2017-12-16T14:34:32.030Z,5.19
2017-12-16T14:36:59.501Z,5.29
2017-12-16T14:39:26.977Z,5.16
2017-12-16T14:41:54.600Z,5.26
2017-12-16T14:44:22.120Z,5.19
2017-12-16T14:46:49.608Z,5.15
2017-12-16T14:49:17.720Z,5.14
2017-12-16T14:51:45.183Z,5.09
2017-12-16T14:54:12.779Z,5.02
2017-12-16T14:56:40.760Z,5.00
2017-12-16T15:01:42.033Z,5.10
2017-12-16T15:04:09.545Z,5.06
2017-12-16T15:06:37.049Z,5.06
2017-12-16T15:09:04.743Z,4.90
2017-12-16T15:11:32.513Z,4.90
2017-12-16T15:14:00.088Z,4.81
2017-12-16T15:16:27.815Z,4.84
2017-12-16T15:18:55.518Z,4.77
2017-12-16T15:21:23.676Z,4.75
2017-12-16T15:23:51.167Z,4.75
2017-12-16T15:26:18.728Z,4.81
2017-12-16T15:28:46.234Z,4.82
2017-12-16T15:31:13.832Z,4.76
2017-12-16T15:33:49.277Z,4.98
2017-12-16T15:36:16.815Z,4.76
2017-12-16T15:38:44.308Z,4.86
2017-12-16T15:41:11.817Z,4.83
2017-12-16T15:43:40.097Z,4.90
2017-12-16T15:46:09.561Z,4.90
2017-12-16T15:48:37.384Z,4.96
2017-12-16T15:51:06.924Z,4.87
2017-12-16T15:53:34.483Z,4.91
2017-12-16T15:56:02.269Z,4.85
2017-12-16T15:58:30.364Z,4.81
2017-12-16T16:00:57.868Z,4.78
2017-12-16T16:03:25.829Z,4.81
2017-12-16T16:05:53.523Z,4.87
2017-12-16T16:08:21.301Z,4.81
2017-12-16T16:10:48.832Z,4.88
2017-12-16T16:13:16.813Z,4.78
2017-12-16T16:15:44.633Z,4.77
2017-12-16T16:18:13.644Z,4.83
2017-12-16T16:20:41.159Z,4.81
2017-12-16T16:23:08.765Z,4.88
2017-12-16T16:25:36.350Z,4.86
2017-12-16T16:28:03.906Z,4.78
2017-12-16T16:30:31.464Z,4.72
2017-12-16T16:32:59.126Z,4.70
2017-12-16T16:35:26.799Z,4.67
2017-12-16T16:37:54.630Z,4.68
2017-12-16T16:40:22.230Z,4.72
2017-12-16T16:42:50.266Z,4.69
2017-12-16T16:45:20.694Z,4.71
2017-12-16T16:47:48.291Z,4.62
2017-12-16T16:50:19.081Z,4.72
2017-12-16T16:52:46.683Z,4.66
2017-12-16T16:55:15.227Z,4.67
2017-12-16T16:57:42.705Z,4.66
2017-12-16T17:00:10.273Z,4.69
2017-12-16T17:02:38.326Z,4.56
2017-12-16T17:05:06.062Z,4.62
2017-12-16T17:07:33.530Z,4.63
2017-12-16T17:10:01.035Z,4.54
2017-12-16T17:12:28.508Z,4.53
2017-12-16T17:14:56.274Z,4.43
2017-12-16T17:17:23.867Z,4.33
2017-12-16T17:19:51.429Z,4.41
2017-12-16T17:22:18.928Z,4.39
2017-12-16T17:24:47.214Z,4.44
2017-12-16T17:27:14.796Z,4.22
2017-12-16T17:29:42.297Z,4.18
2017-12-16T17:32:09.841Z,4.18
2017-12-16T17:34:37.330Z,4.21
2017-12-16T17:37:04.796Z,4.30
2017-12-16T17:39:32.620Z,4.36
2017-12-16T17:42:00.094Z,4.27
2017-12-16T17:44:27.618Z,4.32
2017-12-16T17:46:55.169Z,4.33
2017-12-16T17:51:56.489Z,4.21
2017-12-16T17:54:24.009Z,4.00
2017-12-16T17:56:51.752Z,3.85
2017-12-16T17:59:19.316Z,3.79
2017-12-16T18:01:46.799Z,3.91
2017-12-16T18:04:14.656Z,3.97
2017-12-16T18:06:42.405Z,4.22
2017-12-16T18:09:10.094Z,4.23
2017-12-16T18:11:37.707Z,4.45
2017-12-16T18:14:05.231Z,4.48
2017-12-16T18:16:33.473Z,4.52
2017-12-16T18:19:01.100Z,4.46
2017-12-16T18:21:28.864Z,4.38
2017-12-16T18:23:56.344Z,4.21
2017-12-16T18:26:23.943Z,4.20
2017-12-16T18:28:51.448Z,4.25
2017-12-16T18:31:19.037Z,4.21
2017-12-16T18:33:46.596Z,4.30
2017-12-16T18:36:14.071Z,4.29
2017-12-16T18:38:41.558Z,4.28
2017-12-16T18:41:09.125Z,4.35
2017-12-16T18:43:36.624Z,4.33
2017-12-16T18:46:04.197Z,4.34
2017-12-16T18:48:31.794Z,4.34
2017-12-16T18:50:59.287Z,4.45
2017-12-16T18:53:26.909Z,4.56
2017-12-16T18:55:54.378Z,4.52
2017-12-16T18:58:21.896Z,4.58
2017-12-16T19:00:49.662Z,4.57
2017-12-16T19:03:17.278Z,4.47
2017-12-16T19:05:45.565Z,4.46
2017-12-16T19:08:13.123Z,4.41
2017-12-16T19:10:41.050Z,4.40
2017-12-16T19:13:08.587Z,4.40
2017-12-16T19:15:36.336Z,4.42
2017-12-16T19:18:05.797Z,4.49
2017-12-16T19:20:36.199Z,4.46
2017-12-16T19:23:04.311Z,4.44
2017-12-16T19:25:31.828Z,4.43
2017-12-16T19:27:59.473Z,4.58
2017-12-16T19:30:26.997Z,4.61
2017-12-16T19:32:54.458Z,4.59
2017-12-16T19:35:21.988Z,4.52
2017-12-16T19:37:49.555Z,4.42
2017-12-16T19:40:21.557Z,4.53
2017-12-16T19:42:51.695Z,4.70
2017-12-16T19:45:19.960Z,4.64
2017-12-16T19:47:49.294Z,4.60
2017-12-16T19:50:19.230Z,4.53
2017-12-16T19:52:46.783Z,4.45
2017-12-16T19:55:15.422Z,4.43
2017-12-16T19:57:43.210Z,4.59
2017-12-16T20:00:10.712Z,4.64
2017-12-16T20:02:39.010Z,4.66
2017-12-16T20:05:06.527Z,4.56
2017-12-16T20:07:35.836Z,4.59
2017-12-16T20:10:03.762Z,4.62
2017-12-16T20:12:32.496Z,4.64
2017-12-16T20:15:02.842Z,4.66
2017-12-16T20:17:30.354Z,4.55
2017-12-16T20:19:58.173Z,4.58
2017-12-16T20:22:25.688Z,4.54
2017-12-16T20:24:53.512Z,4.54
2017-12-16T20:27:21.043Z,4.59
2017-12-16T20:29:48.904Z,4.48
2017-12-16T20:32:16.596Z,4.53
2017-12-16T20:34:44.092Z,4.42
2017-12-16T20:37:15.135Z,4.45
2017-12-16T20:39:43.402Z,4.43
2017-12-16T20:42:10.956Z,4.46
2017-12-16T20:44:38.560Z,4.61
2017-12-16T20:47:06.192Z,4.55
2017-12-16T20:49:33.831Z,4.49
2017-12-16T20:52:01.384Z,4.56
2017-12-16T20:54:29.967Z,4.61
2017-12-16T20:56:57.699Z,4.50
2017-12-16T20:59:25.439Z,4.56
2017-12-16T21:01:53.491Z,4.45
2017-12-16T21:04:21.038Z,4.38
2017-12-16T21:06:48.857Z,4.28
2017-12-16T21:09:17.464Z,4.22
2017-12-16T21:11:45.397Z,4.12
2017-12-16T21:14:13.080Z,4.14
2017-12-16T21:16:40.635Z,3.97
2017-12-16T21:19:09.102Z,3.91
2017-12-16T21:21:36.870Z,4.03
2017-12-16T21:24:04.401Z,3.95
2017-12-16T21:26:33.452Z,3.91
2017-12-16T21:29:01.057Z,3.94
2017-12-16T21:31:28.528Z,4.08
2017-12-16T21:33:56.072Z,4.10
2017-12-16T21:36:24.837Z,4.11
2017-12-16T21:38:52.345Z,4.14
2017-12-16T21:41:24.424Z,4.17
2017-12-16T21:43:52.290Z,4.16
2017-12-16T21:46:19.823Z,4.39
2017-12-16T21:48:47.496Z,4.47
2017-12-16T21:51:15.042Z,4.42
2017-12-16T21:53:42.719Z,4.36
2017-12-16T21:56:11.343Z,4.46
2017-12-16T21:58:39.073Z,4.58
2017-12-16T22:01:06.657Z,4.55
2017-12-16T22:03:34.246Z,4.58
2017-12-16T22:06:01.728Z,4.54
2017-12-16T22:08:29.310Z,4.62
2017-12-16T22:10:56.827Z,4.65
2017-12-16T22:13:24.441Z,4.62
2017-12-16T22:15:51.849Z,4.65
2017-12-16T22:18:19.380Z,4.54
2017-12-16T22:20:46.870Z,4.67
2017-12-16T22:23:14.376Z,4.61
2017-12-16T22:25:41.950Z,4.59
2017-12-16T22:28:09.605Z,4.54
2017-12-16T22:30:37.412Z,4.55
2017-12-16T22:33:04.982Z,4.56
2017-12-16T22:35:32.436Z,4.65
2017-12-16T22:37:59.904Z,4.58
2017-12-16T22:40:27.443Z,4.54
2017-12-16T22:42:54.924Z,4.54
2017-12-16T22:45:22.384Z,4.55
2017-12-16T22:47:49.924Z,4.55
2017-12-16T22:50:17.500Z,4.57
2017-12-16T22:52:44.973Z,4.65
2017-12-16T22:55:13.174Z,4.60
2017-12-16T22:57:40.741Z,4.62
2017-12-16T23:00:08.539Z,4.59
2017-12-16T23:02:40.105Z,4.58
2017-12-16T23:05:08.108Z,4.56
2017-12-16T23:07:35.576Z,4.50
2017-12-16T23:10:03.178Z,4.54
2017-12-16T23:12:30.829Z,4.51
2017-12-16T23:14:58.339Z,4.55
2017-12-16T23:17:25.977Z,4.39
2017-12-16T23:19:53.563Z,4.39
2017-12-16T23:22:21.063Z,4.25
2017-12-16T23:24:48.603Z,4.20
2017-12-16T23:27:18.458Z,4.06
2017-12-16T23:29:45.987Z,3.97
2017-12-16T23:32:13.536Z,3.92
2017-12-16T23:34:41.010Z,3.92
2017-12-16T23:37:08.512Z,3.94
2017-12-16T23:39:36.258Z,3.91
2017-12-16T23:42:03.749Z,3.89
2017-12-16T23:44:31.248Z,3.88
2017-12-16T23:46:58.733Z,3.87
2017-12-16T23:49:26.281Z,3.89
2017-12-16T23:51:53.776Z,3.89
2017-12-16T23:54:23.837Z,3.98
2017-12-16T23:56:51.352Z,4.03
2017-12-16T23:59:20.241Z,3.91
